Time;durP1;ratioP1;P1;durP2;ratioP2;P2;SDS_P1;SDS_P2;PMS_P1;PMS_P2;Temp;Humidity;BMP_temperature;BMP_pressure;BME280_temperature;BME280_humidity;BME280_pressure;Samples;Min_cycle;Max_cycle;Signal;HPM_P1;HPM_P2
2021/10/20 00:00:44;;;;;;;82.40;73.63;;;;;;;17.53;100.00;100740.23;1940799;74;31178;-73
2021/10/20 00:06:08;;;;;;;83.60;74.53;;;;;;;17.50;100.00;100731.05;1940887;74;31047;-73
2021/10/20 00:11:33;;;;;;;83.13;74.60;;;;;;;17.51;100.00;100733.28;1940884;74;31148;-73
2021/10/20 00:16:58;;;;;;;80.13;71.53;;;;;;;17.44;100.00;100709.11;1940845;74;31021;-72
2021/10/20 00:22:22;;;;;;;76.93;68.80;;;;;;;17.43;100.00;100711.09;1940758;74;31051;-73
2021/10/20 00:27:47;;;;;;;76.90;69.13;;;;;;;17.46;100.00;100710.41;1940836;74;31093;-73
2021/10/20 00:33:12;;;;;;;72.43;65.33;;;;;;;17.49;100.00;100696.30;1940948;74;33495;-70
2021/10/20 00:38:37;;;;;;;69.13;62.53;;;;;;;17.48;100.00;100688.45;1940799;74;31063;-70
2021/10/20 00:44:01;;;;;;;66.33;59.87;;;;;;;17.44;100.00;100680.45;1940818;74;31025;-73
2021/10/20 00:49:26;;;;;;;62.43;56.67;;;;;;;17.50;100.00;100661.45;1940790;74;31023;-73
2021/10/20 00:54:53;;;;;;;58.60;53.07;;;;;;;17.48;100.00;100641.28;1940897;74;31123;-73
2021/10/20 01:00:24;;;;;;;59.37;54.03;;;;;;;17.42;100.00;100629.41;1940949;74;31080;-73
2021/10/20 01:05:50;;;;;;;60.53;55.43;;;;;;;17.40;100.00;100622.48;1940827;74;31023;-72
2021/10/20 01:11:16;;;;;;;56.93;52.13;;;;;;;17.40;100.00;100596.64;1940962;74;31674;-70
2021/10/20 01:16:41;;;;;;;56.33;51.57;;;;;;;17.39;100.00;100574.51;1940912;74;31035;-74
2021/10/20 01:22:06;;;;;;;53.20;48.80;;;;;;;17.37;100.00;100597.91;1940971;74;31537;-73
2021/10/20 01:27:31;;;;;;;54.03;49.63;;;;;;;17.36;100.00;100608.88;1940812;74;31031;-72
2021/10/20 01:32:56;;;;;;;53.17;48.83;;;;;;;17.39;100.00;100604.81;1940793;74;31178;-73
2021/10/20 01:38:20;;;;;;;51.80;47.70;;;;;;;17.35;100.00;100617.05;1940854;74;31146;-73
2021/10/20 01:43:47;;;;;;;54.67;50.20;;;;;;;17.35;100.00;100604.42;1940989;74;31118;-72
2021/10/20 01:49:12;;;;;;;54.00;49.80;;;;;;;17.37;100.00;100607.73;1940689;74;31027;-73
2021/10/20 01:54:36;;;;;;;55.40;51.00;;;;;;;17.39;100.00;100606.22;1940816;74;31031;-72
2021/10/20 02:00:00;;;;;;;53.47;48.97;;;;;;;17.38;100.00;100609.36;1940979;74;31517;-73
2021/10/20 02:05:25;;;;;;;55.20;50.80;;;;;;;17.37;100.00;100602.91;1941048;74;31590;-73
2021/10/20 02:10:49;;;;;;;56.17;51.80;;;;;;;17.35;100.00;100605.25;1940947;74;31507;-72
2021/10/20 02:16:13;;;;;;;54.27;49.90;;;;;;;17.30;100.00;100580.98;1940866;74;31047;-73
2021/10/20 02:21:38;;;;;;;56.10;51.70;;;;;;;17.22;100.00;100566.41;1940715;74;31120;-73
2021/10/20 02:27:02;;;;;;;51.20;47.00;;;;;;;17.21;100.00;100553.53;1940770;74;33162;-72
2021/10/20 02:32:27;;;;;;;50.60;46.70;;;;;;;17.18;100.00;100531.76;1940750;74;31109;-73
2021/10/20 02:37:51;;;;;;;50.90;47.00;;;;;;;17.17;100.00;100505.42;1940749;74;31164;-73
2021/10/20 02:43:15;;;;;;;52.07;48.00;;;;;;;17.19;100.00;100483.47;1941018;74;31488;-72
2021/10/20 02:48:39;;;;;;;54.17;50.07;;;;;;;17.20;100.00;100468.28;1940942;74;31044;-73
2021/10/20 02:54:04;;;;;;;49.37;45.70;;;;;;;17.16;100.00;100454.65;1940848;74;31109;-73
2021/10/20 02:59:28;;;;;;;50.97;46.87;;;;;;;17.17;100.00;100482.39;1940824;74;31040;-70
2021/10/20 03:04:52;;;;;;;51.93;47.97;;;;;;;17.13;100.00;100465.98;1940921;74;31139;-72
2021/10/20 03:10:17;;;;;;;52.40;48.07;;;;;;;17.14;100.00;100440.97;1940917;74;31603;-74
2021/10/20 03:15:42;;;;;;;51.20;47.17;;;;;;;17.12;100.00;100413.81;1940934;74;31608;-74
2021/10/20 03:21:06;;;;;;;52.93;48.83;;;;;;;17.10;100.00;100441.41;1940684;74;31159;-72
2021/10/20 03:26:30;;;;;;;50.80;47.00;;;;;;;17.13;100.00;100443.53;1940735;74;31050;-73
2021/10/20 03:31:55;;;;;;;50.50;46.33;;;;;;;17.12;100.00;100436.84;1940839;74;31050;-72
2021/10/20 03:37:19;;;;;;;50.80;46.80;;;;;;;17.17;100.00;100417.83;1940996;74;31506;-74
2021/10/20 03:42:44;;;;;;;50.80;46.93;;;;;;;17.08;100.00;100410.63;1940836;74;31057;-73
2021/10/20 03:48:09;;;;;;;51.00;47.10;;;;;;;17.04;100.00;100395.05;1940825;74;31133;-72
2021/10/20 03:53:33;;;;;;;50.37;46.47;;;;;;;17.08;100.00;100380.58;1940912;74;31128;-72
2021/10/20 03:58:57;;;;;;;51.37;47.37;;;;;;;17.06;100.00;100352.05;1940931;74;31603;-74
2021/10/20 04:04:21;;;;;;;50.97;47.17;;;;;;;17.05;100.00;100329.94;1940945;74;31713;-74
2021/10/20 04:09:45;;;;;;;51.50;47.57;;;;;;;17.02;100.00;100334.26;1940850;74;33608;-73
2021/10/20 04:15:11;;;;;;;52.50;48.43;;;;;;;17.03;100.00;100325.26;1940766;74;31113;-72
2021/10/20 04:20:35;;;;;;;50.37;46.77;;;;;;;17.07;100.00;100329.81;1940824;74;31124;-74
2021/10/20 04:25:59;;;;;;;51.40;47.50;;;;;;;17.07;100.00;100325.61;1940758;74;31054;-73
2021/10/20 04:31:23;;;;;;;52.03;48.03;;;;;;;17.05;100.00;100301.87;1940770;74;31083;-74
2021/10/20 04:36:47;;;;;;;48.57;44.67;;;;;;;17.03;100.00;100292.38;1940933;74;33635;-73
2021/10/20 04:42:11;;;;;;;50.33;46.67;;;;;;;17.06;100.00;100260.85;1940944;74;31188;-73
2021/10/20 04:47:36;;;;;;;50.43;46.47;;;;;;;17.08;100.00;100265.52;1940909;74;31628;-73
2021/10/20 04:53:03;;;;;;;49.57;45.87;;;;;;;17.07;100.00;100258.27;1940997;74;31522;-73
2021/10/20 04:58:27;;;;;;;49.83;46.33;;;;;;;17.07;100.00;100258.88;1940956;74;31258;-72
2021/10/20 05:03:51;;;;;;;49.87;46.17;;;;;;;17.12;100.00;100249.64;1941082;74;33528;-74
2021/10/20 05:09:15;;;;;;;50.87;47.23;;;;;;;17.12;100.00;100246.84;1940805;74;31164;-72
2021/10/20 05:14:39;;;;;;;46.47;42.97;;;;;;;17.15;100.00;100234.94;1940926;74;31045;-73
2021/10/20 05:20:04;;;;;;;46.63;42.93;;;;;;;17.17;100.00;100231.19;1940782;74;31150;-72
2021/10/20 05:25:29;;;;;;;46.43;42.60;;;;;;;17.19;100.00;100236.47;1940937;74;31571;-73
2021/10/20 05:30:53;;;;;;;48.10;44.07;;;;;;;17.25;100.00;100228.88;1940793;74;31038;-73
2021/10/20 05:36:18;;;;;;;48.50;44.40;;;;;;;17.26;100.00;100227.73;1941040;74;31638;-72
2021/10/20 05:41:42;;;;;;;44.90;41.10;;;;;;;17.27;100.00;100225.16;1941125;74;31245;-73
2021/10/20 05:47:06;;;;;;;49.97;45.80;;;;;;;17.26;100.00;100229.12;1940883;74;31232;-72
2021/10/20 05:52:31;;;;;;;49.23;45.30;;;;;;;17.30;100.00;100225.87;1941023;74;31755;-73
2021/10/20 05:57:55;;;;;;;48.63;44.47;;;;;;;17.25;100.00;100226.08;1941015;74;31613;-73
2021/10/20 06:03:19;;;;;;;48.00;44.20;;;;;;;17.14;100.00;100227.68;1940748;74;31157;-72
2021/10/20 06:08:44;;;;;;;45.53;41.83;;;;;;;17.18;100.00;100244.65;1941019;74;31732;-72
2021/10/20 06:14:11;;;;;;;47.50;43.40;;;;;;;17.16;100.00;100240.77;1941045;74;31675;-73
2021/10/20 06:19:35;;;;;;;44.10;40.30;;;;;;;17.14;100.00;100236.10;1941145;74;31146;-73
2021/10/20 06:24:58;;;;;;;47.37;43.20;;;;;;;17.17;100.00;100245.23;1940783;74;31189;-72
2021/10/20 06:30:22;;;;;;;45.10;41.30;;;;;;;17.13;100.00;100248.48;1940783;74;31123;-73
2021/10/20 06:35:46;;;;;;;42.70;39.10;;;;;;;17.09;100.00;100264.37;1940835;74;31073;-72
2021/10/20 06:41:11;;;;;;;45.70;42.17;;;;;;;17.05;100.00;100263.99;1940780;74;31062;-72
2021/10/20 06:46:35;;;;;;;45.83;41.97;;;;;;;17.06;100.00;100264.23;1940938;74;33564;-74
2021/10/20 06:51:59;;;;;;;45.00;40.93;;;;;;;17.04;100.00;100256.16;1940742;74;31075;-73
2021/10/20 06:57:24;;;;;;;47.20;43.60;;;;;;;17.03;100.00;100253.10;1940904;74;31185;-73
2021/10/20 07:02:48;;;;;;;47.70;44.00;;;;;;;17.01;100.00;100263.04;1940777;74;31055;-73
2021/10/20 07:08:13;;;;;;;47.23;43.37;;;;;;;16.97;100.00;100270.50;1940723;74;31147;-71
2021/10/20 07:13:37;;;;;;;46.80;43.17;;;;;;;16.97;100.00;100277.52;1940839;74;31048;-72
2021/10/20 07:19:03;;;;;;;49.53;45.50;;;;;;;16.97;100.00;100276.11;1941136;74;31061;-72
2021/10/20 07:24:27;;;;;;;52.13;47.93;;;;;;;16.91;100.00;100278.29;1940792;74;31053;-73
2021/10/20 07:29:51;;;;;;;49.53;45.63;;;;;;;16.94;100.00;100279.61;1940928;74;33537;-73
2021/10/20 07:35:17;;;;;;;50.33;46.33;;;;;;;16.84;100.00;100256.98;1940896;74;31121;-72
2021/10/20 07:40:42;;;;;;;50.90;46.00;;;;;;;16.81;100.00;100234.63;1940989;74;31673;-72
2021/10/20 07:46:07;;;;;;;61.67;57.00;;;;;;;16.73;100.00;100215.89;1940819;74;31233;-72
2021/10/20 07:51:31;;;;;;;58.27;53.90;;;;;;;16.78;100.00;100205.05;1940770;74;31011;-73
2021/10/20 07:56:55;;;;;;;56.00;52.10;;;;;;;16.65;100.00;100239.20;1940920;74;31588;-73
2021/10/20 08:02:21;;;;;;;56.73;52.63;;;;;;;16.78;100.00;100256.93;1940865;74;31017;-72
2021/10/20 08:07:46;;;;;;;53.00;49.13;;;;;;;16.76;100.00;100250.86;1940861;74;31036;-72
2021/10/20 08:13:13;;;;;;;54.40;50.80;;;;;;;16.65;100.00;100239.20;1940772;74;31209;-73
2021/10/20 08:18:38;;;;;;;52.50;48.77;;;;;;;16.49;100.00;100265.34;1940797;74;31059;-73
2021/10/20 08:24:02;;;;;;;54.58;50.88;;;;;;;16.38;100.00;100264.36;1924764;74;28303;-73
2021/10/20 08:29:26;;;;;;;54.83;51.10;;;;;;;16.24;100.00;100262.36;1940873;74;33158;-71
2021/10/20 08:34:52;;;;;;;52.23;48.73;;;;;;;16.22;100.00;100260.45;1940928;74;33096;-72
2021/10/20 08:40:16;;;;;;;51.70;48.30;;;;;;;16.08;100.00;100245.88;1940775;74;31058;-73
2021/10/20 08:45:41;;;;;;;50.10;46.63;;;;;;;15.97;100.00;100247.97;1941055;74;33505;-73
2021/10/20 08:51:08;;;;;;;50.07;46.87;;;;;;;15.91;100.00;100237.55;1941008;74;31515;-72
2021/10/20 08:56:32;;;;;;;51.50;48.30;;;;;;;15.91;100.00;100254.35;1940830;74;31016;-72
2021/10/20 09:01:56;;;;;;;49.20;45.97;;;;;;;15.86;100.00;100235.75;1940822;74;33151;-73
2021/10/20 09:07:21;;;;;;;50.33;47.03;;;;;;;15.96;100.00;100233.74;1940834;74;33074;-72
2021/10/20 09:12:50;;;;;;;48.23;44.83;;;;;;;16.16;100.00;100229.60;1940839;74;31047;-73
2021/10/20 09:18:15;;;;;;;45.47;42.17;;;;;;;16.42;100.00;100221.05;1940955;74;31526;-72
2021/10/20 09:23:40;;;;;;;51.73;48.20;;;;;;;16.73;100.00;100235.52;1907353;75;33170;-73
2021/10/20 09:29:08;;;;;;;49.60;46.10;;;;;;;16.92;100.00;100225.81;1940870;74;31151;-72
2021/10/20 09:34:37;;;;;;;55.73;51.83;;;;;;;16.93;100.00;100201.62;1940985;74;31057;-69
2021/10/20 09:40:06;;;;;;;51.50;47.67;;;;;;;17.18;100.00;100199.74;1940867;74;31249;-74
2021/10/20 09:45:41;;;;;;;53.33;49.47;;;;;;;17.44;100.00;100186.84;1941028;74;31609;-72
2021/10/20 09:51:13;;;;;;;47.60;43.67;;;;;;;17.41;100.00;100165.91;1940924;74;33444;-72
2021/10/20 09:56:40;;;;;;;43.50;40.03;;;;;;;17.66;100.00;100157.79;1940810;74;31060;-72
2021/10/20 10:02:05;;;;;;;41.03;37.87;;;;;;;17.67;100.00;100141.14;1941039;74;31622;-72
2021/10/20 10:07:29;;;;;;;45.23;41.50;;;;;;;17.77;100.00;100120.80;1940781;74;31094;-73
2021/10/20 10:12:57;;;;;;;41.50;37.90;;;;;;;17.83;100.00;100127.25;1940819;74;31044;-73
2021/10/20 10:18:24;;;;;;;42.77;39.07;;;;;;;17.63;100.00;100102.88;1940929;74;31616;-72
2021/10/20 10:23:55;;;;;;;41.30;37.60;;;;;;;17.78;100.00;100084.52;1977416;72;31059;-72
2021/10/20 10:29:19;;;;;;;40.87;37.33;;;;;;;17.79;100.00;100063.11;1940799;74;31056;-73
2021/10/20 10:34:47;;;;;;;42.10;37.70;;;;;;;17.83;100.00;100047.17;1940792;74;31144;-72
2021/10/20 10:40:28;;;;;;;40.57;36.87;;;;;;;17.89;100.00;100037.91;1940865;74;31191;-72
2021/10/20 10:45:51;;;;;;;39.57;36.40;;;;;;;17.86;100.00;100028.20;1940793;74;31150;-72
2021/10/20 10:51:20;;;;;;;43.03;39.40;;;;;;;17.92;100.00;100018.95;1940936;74;33465;-73
2021/10/20 10:56:57;;;;;;;41.17;37.63;;;;;;;17.95;100.00;100020.46;1940831;74;31021;-72
2021/10/20 11:02:45;;;;;;;41.37;38.07;;;;;;;17.87;100.00;100012.17;1941050;74;31526;-72
2021/10/20 11:08:12;;;;;;;37.93;34.97;;;;;;;17.75;100.00;99996.16;1941043;74;31590;-72
2021/10/20 11:13:40;;;;;;;37.07;33.97;;;;;;;17.91;100.00;100007.47;1940817;74;31028;-72
2021/10/20 11:19:06;;;;;;;38.07;35.03;;;;;;;18.05;100.00;100003.70;1940795;74;31028;-73
2021/10/20 11:24:34;;;;;;;39.07;35.53;;;;;;;18.03;100.00;100001.81;1940788;74;31014;-73
2021/10/20 11:29:58;;;;;;;40.37;36.83;;;;;;;17.96;100.00;99985.58;1940761;74;31130;-72
2021/10/20 11:35:25;;;;;;;40.37;37.03;;;;;;;18.05;100.00;99970.80;1940804;74;31268;-73
2021/10/20 11:40:54;;;;;;;36.73;33.83;;;;;;;17.78;100.00;99966.53;1940840;74;31026;-73
2021/10/20 11:46:23;;;;;;;38.17;35.00;;;;;;;17.78;100.00;99951.91;1940984;74;31150;-71
2021/10/20 11:51:45;;;;;;;36.27;33.37;;;;;;;17.97;100.00;99946.45;1940900;74;31103;-72
2021/10/20 11:57:14;;;;;;;49.47;46.23;;;;;;;18.03;100.00;99919.73;1940780;74;31141;-72
2021/10/20 12:02:38;;;;;;;34.20;31.30;;;;;;;18.45;100.00;99931.36;1940897;74;31085;-72
2021/10/20 12:08:06;;;;;;;33.83;31.43;;;;;;;18.41;100.00;99925.41;1940799;74;31451;-72
2021/10/20 12:13:30;;;;;;;32.63;30.30;;;;;;;18.56;100.00;99929.70;1940770;74;31019;-73
2021/10/20 12:18:56;;;;;;;29.03;26.83;;;;;;;18.65;100.00;99919.68;1940790;74;31040;-72
2021/10/20 12:24:25;;;;;;;30.90;28.47;;;;;;;18.81;100.00;99916.86;1941002;74;31013;-74
2021/10/20 12:29:53;;;;;;;28.03;26.13;;;;;;;18.82;100.00;99908.66;1940710;74;31112;-72
2021/10/20 12:35:19;;;;;;;26.90;24.70;;;;;;;18.72;100.00;99920.44;1940768;74;31117;-72
2021/10/20 12:40:45;;;;;;;27.17;25.40;;;;;;;18.69;100.00;99891.64;1940865;74;31101;-73
2021/10/20 12:46:10;;;;;;;25.93;24.37;;;;;;;18.91;100.00;99889.59;1940819;74;31202;-73
2021/10/20 12:51:37;;;;;;;23.93;22.17;;;;;;;18.85;100.00;99880.60;1940808;74;31044;-73
2021/10/20 12:57:02;;;;;;;22.60;21.30;;;;;;;18.45;100.00;99868.67;1940985;74;33478;-72
2021/10/20 13:02:31;;;;;;;25.43;23.83;;;;;;;18.26;100.00;99867.16;1940949;74;33530;-73
2021/10/20 13:08:02;;;;;;;24.77;23.23;;;;;;;18.06;100.00;99854.38;1940821;74;31049;-72
2021/10/20 13:13:27;;;;;;;25.53;24.10;;;;;;;18.15;100.00;99865.45;1940933;74;31608;-72
2021/10/20 13:18:51;;;;;;;32.27;30.30;;;;;;;17.71;100.00;99871.66;1940773;74;31034;-71
2021/10/20 13:24:14;;;;;;;37.00;34.60;;;;;;;16.66;100.00;99887.54;1940860;74;31258;-72
2021/10/20 13:29:38;;;;;;;36.70;34.63;;;;;;;16.48;100.00;99883.27;1940881;74;33493;-72
2021/10/20 13:35:04;;;;;;;37.00;34.63;;;;;;;16.51;100.00;99875.59;1940972;74;31482;-73
2021/10/20 13:40:28;;;;;;;30.83;29.00;;;;;;;16.49;100.00;99885.50;1940938;74;33437;-72
2021/10/20 13:45:53;;;;;;;34.03;31.83;;;;;;;16.74;100.00;99882.40;1940829;74;31167;-72
2021/10/20 13:51:17;;;;;;;33.67;31.63;;;;;;;16.93;100.00;99854.36;1940820;74;31092;-71
2021/10/20 13:56:41;;;;;;;32.57;30.57;;;;;;;17.13;100.00;99856.20;1940854;74;31118;-72
2021/10/20 14:02:05;;;;;;;33.73;31.37;;;;;;;17.21;100.00;99871.50;1940921;74;31597;-73
2021/10/20 14:07:30;;;;;;;35.73;33.53;;;;;;;17.05;100.00;99868.38;1940816;74;31007;-71
2021/10/20 14:12:54;;;;;;;32.07;30.07;;;;;;;17.15;100.00;99865.09;1941014;74;31022;-73
2021/10/20 14:18:19;;;;;;;34.27;32.10;;;;;;;17.21;100.00;99841.21;1940792;74;31010;-72
2021/10/20 14:23:44;;;;;;;34.07;31.87;;;;;;;17.38;100.00;99847.13;1907379;75;31193;-74
2021/10/20 14:29:09;;;;;;;35.07;32.87;;;;;;;17.32;100.00;99840.15;1940792;74;31090;-72
2021/10/20 14:34:33;;;;;;;33.57;31.23;;;;;;;17.27;100.00;99824.38;1941087;74;31455;-74
2021/10/20 14:39:58;;;;;;;32.90;30.63;;;;;;;17.35;100.00;99822.59;1941026;74;31480;-70
2021/10/20 14:45:22;;;;;;;32.30;30.20;;;;;;;17.28;100.00;99816.98;1940844;74;31023;-71
2021/10/20 14:50:47;;;;;;;31.93;29.73;;;;;;;17.41;100.00;99806.56;1940951;74;33437;-71
2021/10/20 14:56:11;;;;;;;27.17;25.57;;;;;;;17.25;100.00;99816.30;1940781;74;33110;-71
2021/10/20 15:01:36;;;;;;;25.50;23.67;;;;;;;17.12;100.00;99809.08;1940817;74;31052;-72
2021/10/20 15:07:01;;;;;;;25.20;23.73;;;;;;;17.21;100.00;99792.92;1940961;74;31053;-72
2021/10/20 15:12:25;;;;;;;27.67;25.93;;;;;;;17.14;100.00;99780.67;1940942;74;31120;-72
2021/10/20 15:17:56;;;;;;;29.13;27.00;;;;;;;17.24;100.00;99771.77;1940769;74;31121;-72
2021/10/20 15:23:16;;;;;;;30.10;28.27;;;;;;;17.08;100.00;99760.45;1940819;74;31101;-72
2021/10/20 15:28:40;;;;;;;29.80;27.80;;;;;;;17.06;100.00;99774.62;1940772;74;31187;-72
2021/10/20 15:34:09;;;;;;;28.97;27.27;;;;;;;17.05;100.00;99771.58;1940958;74;31043;-72
2021/10/20 15:39:34;;;;;;;28.17;26.27;;;;;;;17.01;100.00;99764.46;1940713;74;31091;-72
2021/10/20 15:44:59;;;;;;;27.43;25.83;;;;;;;16.83;100.00;99747.66;1941031;74;31656;-72
2021/10/20 15:50:26;;;;;;;28.50;26.73;;;;;;;16.77;100.00;99733.67;1940853;74;33090;-73
2021/10/20 15:55:51;;;;;;;29.27;27.37;;;;;;;16.61;100.00;99729.36;1940790;74;31017;-72
2021/10/20 16:01:16;;;;;;;30.80;28.20;;;;;;;16.58;100.00;99716.63;1940721;74;31162;-72
2021/10/20 16:06:41;;;;;;;34.77;32.00;;;;;;;16.56;100.00;99720.36;1940891;74;31286;-73
2021/10/20 16:12:09;;;;;;;38.87;35.87;;;;;;;16.31;100.00;99722.34;1940763;74;31086;-72
2021/10/20 16:17:34;;;;;;;35.37;32.87;;;;;;;16.29;100.00;99715.70;1940889;74;31100;-72
2021/10/20 16:22:59;;;;;;;35.90;32.93;;;;;;;16.26;100.00;99709.38;1940818;74;31033;-73
2021/10/20 16:28:24;;;;;;;39.83;37.23;;;;;;;16.19;100.00;99700.75;1940781;74;31019;-72
2021/10/20 16:33:48;;;;;;;39.70;36.87;;;;;;;16.09;100.00;99706.81;1941058;74;31648;-74
2021/10/20 16:39:32;;;;;;;40.70;37.97;;;;;;;15.98;100.00;99700.05;2009446;71;32806;-74
2021/10/20 16:44:57;;;;;;;40.17;37.37;;;;;;;15.93;100.00;99696.89;1940876;74;32984;-74
2021/10/20 16:50:22;;;;;;;41.30;38.23;;;;;;;15.84;100.00;99677.98;1940790;74;33536;-74
2021/10/20 16:56:08;;;;;;;41.80;38.63;;;;;;;15.77;100.00;99669.35;2009545;71;32937;-71
2021/10/20 17:01:32;;;;;;;44.50;40.83;;;;;;;15.72;100.00;99653.36;1940995;74;31631;-71
2021/10/20 17:06:56;;;;;;;44.83;41.30;;;;;;;15.59;100.00;99649.73;1940949;74;31082;-71
2021/10/20 17:12:21;;;;;;;43.83;40.67;;;;;;;15.58;100.00;99646.69;1940859;74;33079;-71
2021/10/20 17:17:45;;;;;;;46.00;42.43;;;;;;;15.52;100.00;99634.69;1940943;74;33029;-71
2021/10/20 17:23:11;;;;;;;46.37;42.40;;;;;;;15.38;100.00;99625.17;1940808;74;33200;-72
2021/10/20 17:28:36;;;;;;;45.37;41.80;;;;;;;15.27;100.00;99617.01;1940938;74;33097;-73
2021/10/20 17:34:00;;;;;;;42.53;39.33;;;;;;;15.25;100.00;99619.32;1940756;74;33128;-73
2021/10/20 17:39:25;;;;;;;46.77;43.40;;;;;;;15.29;100.00;99588.91;1940780;74;33161;-72
2021/10/20 17:44:50;;;;;;;46.37;42.57;;;;;;;15.25;100.00;99575.38;1940745;74;33074;-71
2021/10/20 17:50:14;;;;;;;46.57;43.00;;;;;;;15.31;100.00;99572.61;1940849;74;33153;-72
2021/10/20 17:55:39;;;;;;;41.17;38.03;;;;;;;15.31;100.00;99561.99;1940957;74;33091;-69
2021/10/20 18:01:03;;;;;;;44.57;41.20;;;;;;;15.36;100.00;99547.78;1940818;74;33001;-71
2021/10/20 18:06:29;;;;;;;43.80;40.07;;;;;;;15.26;100.00;99543.45;1940741;74;33130;-71
2021/10/20 18:11:53;;;;;;;43.47;40.13;;;;;;;15.20;100.00;99509.87;1940826;74;33545;-71
2021/10/20 18:17:18;;;;;;;46.23;42.03;;;;;;;15.11;100.00;99495.17;1940871;74;33600;-73
2021/10/20 18:22:45;;;;;;;47.17;43.40;;;;;;;15.16;100.00;99466.98;1940877;74;33635;-71
2021/10/20 18:28:11;;;;;;;50.40;46.57;;;;;;;14.77;100.00;99438.28;1940909;74;33082;-72
2021/10/20 18:33:35;;;;;;;48.40;44.57;;;;;;;14.64;100.00;99429.64;1940937;74;33541;-71
2021/10/20 18:39:01;;;;;;;49.23;45.13;;;;;;;14.46;100.00;99403.30;1940734;74;33519;-72
2021/10/20 18:44:26;;;;;;;53.90;49.33;;;;;;;14.35;100.00;99376.98;1940768;74;33091;-71
2021/10/20 18:49:50;;;;;;;49.30;45.20;;;;;;;14.41;100.00;99379.80;1940838;74;33138;-72
2021/10/20 18:55:15;;;;;;;50.50;46.10;;;;;;;14.26;100.00;99358.08;1941032;74;33546;-72
2021/10/20 19:00:42;;;;;;;50.30;46.17;;;;;;;14.26;100.00;99332.13;1940733;74;32987;-72
2021/10/20 19:06:30;;;;;;;50.63;46.70;;;;;;;14.10;100.00;99302.09;2009571;70;32815;-71
2021/10/20 19:11:54;;;;;;;48.90;45.20;;;;;;;14.34;100.00;99287.33;1940806;74;33214;-71
2021/10/20 19:17:20;;;;;;;52.57;48.00;;;;;;;14.41;100.00;99263.88;1941035;74;32988;-74
2021/10/20 19:22:45;;;;;;;52.03;47.47;;;;;;;14.39;100.00;99259.20;1940723;74;32987;-71
2021/10/20 19:28:10;;;;;;;55.20;50.30;;;;;;;14.30;100.00;99266.84;1940725;74;33076;-73
2021/10/20 19:33:35;;;;;;;53.87;48.90;;;;;;;14.06;100.00;99259.86;1940755;74;33158;-70
2021/10/20 19:39:01;;;;;;;54.23;49.23;;;;;;;13.94;100.00;99236.11;1940808;74;33058;-77
2021/10/20 19:44:25;;;;;;;51.03;46.60;;;;;;;13.86;100.00;99212.70;1940888;74;32990;-73
2021/10/20 19:49:49;;;;;;;49.07;44.73;;;;;;;13.76;100.00;99203.41;1940767;74;32979;-71
2021/10/20 19:55:13;;;;;;;48.70;44.30;;;;;;;13.88;100.00;99199.81;1940761;74;32986;-70
2021/10/20 20:00:38;;;;;;;48.10;43.93;;;;;;;13.75;100.00;99199.56;1940744;74;33120;-76
2021/10/20 20:06:05;;;;;;;47.10;42.87;;;;;;;13.91;100.00;99123.75;1940857;74;33007;-73
2021/10/20 20:11:29;;;;;;;49.60;44.93;;;;;;;13.76;100.00;98992.73;1941018;74;33580;-76
2021/10/20 20:16:54;;;;;;;48.60;44.77;;;;;;;13.78;100.00;98952.73;1940920;74;33570;-73
2021/10/20 20:22:19;;;;;;;45.90;41.63;;;;;;;13.69;100.00;98917.98;1940696;74;33034;-72
2021/10/20 20:27:43;;;;;;;47.77;43.33;;;;;;;13.65;100.00;98884.98;1940742;74;33098;-79
2021/10/20 20:33:09;;;;;;;50.47;45.83;;;;;;;13.61;100.00;98869.31;1940867;74;33513;-75
2021/10/20 20:38:33;;;;;;;50.87;46.00;;;;;;;13.64;100.00;98853.28;1940895;74;33472;-71
2021/10/20 20:43:59;;;;;;;50.37;45.30;;;;;;;13.49;100.00;98872.14;1940659;74;32988;-70
2021/10/20 20:49:42;;;;;;;52.03;47.47;;;;;;;13.42;100.00;98948.05;2009579;71;32820;-82
2021/10/20 20:55:09;;;;;;;46.97;42.87;;;;;;;13.47;100.00;98978.48;1940790;74;33076;-69
2021/10/20 21:00:33;;;;;;;50.50;45.90;;;;;;;13.49;100.00;98976.73;1940801;74;33105;-72
2021/10/20 21:05:58;;;;;;;53.60;49.43;;;;;;;13.36;100.00;98987.08;1940799;74;33158;-74
2021/10/20 21:11:23;;;;;;;53.87;49.80;;;;;;;13.14;100.00;98989.73;1940781;74;32973;-71
2021/10/20 21:16:48;;;;;;;53.13;49.20;;;;;;;13.06;100.00;98968.34;1940857;74;32962;-74
2021/10/20 21:22:14;;;;;;;52.07;47.93;;;;;;;12.95;100.00;98973.33;1940994;74;33452;-71
2021/10/20 21:27:59;;;;;;;52.00;48.40;;;;;;;12.57;100.00;98973.03;2009698;71;33008;-75
2021/10/20 21:33:24;;;;;;;47.90;44.40;;;;;;;12.33;100.00;98972.36;1940762;74;33108;-74
2021/10/20 21:38:49;;;;;;;47.20;43.87;;;;;;;12.38;100.00;98969.94;1940814;74;33056;-74
2021/10/20 21:44:13;;;;;;;47.57;43.63;;;;;;;12.00;100.00;98967.35;1940844;74;33113;-71
2021/10/20 21:49:37;;;;;;;44.40;41.20;;;;;;;11.92;100.00;98954.91;1940994;74;33507;-71
2021/10/20 21:55:04;;;;;;;45.97;42.77;;;;;;;12.13;100.00;98954.30;1940808;74;32991;-73
2021/10/20 22:00:31;;;;;;;43.33;40.20;;;;;;;11.80;100.00;98959.84;1941092;74;33453;-74
2021/10/20 22:05:58;;;;;;;42.10;38.93;;;;;;;11.73;100.00;98962.33;1940846;74;32998;-71
2021/10/20 22:11:24;;;;;;;43.67;40.53;;;;;;;11.73;100.00;98949.23;1940761;74;33074;-72
2021/10/20 22:16:48;;;;;;;44.50;40.97;;;;;;;11.68;100.00;98956.36;1941137;74;33553;-71
2021/10/20 22:22:21;;;;;;;44.80;41.60;;;;;;;11.69;100.00;98956.60;1940959;74;33224;-72
2021/10/20 22:27:46;;;;;;;42.10;39.00;;;;;;;11.66;100.00;98968.41;1941006;74;33545;-72
2021/10/20 22:33:10;;;;;;;43.67;40.60;;;;;;;11.41;100.00;98977.17;1941037;74;33037;-72
2021/10/20 22:38:37;;;;;;;42.33;39.33;;;;;;;11.67;100.00;98995.65;1940742;74;32972;-72
2021/10/20 22:44:01;;;;;;;42.63;39.73;;;;;;;11.43;100.00;99004.61;1940777;74;32992;-74
2021/10/20 22:49:26;;;;;;;41.90;38.83;;;;;;;11.63;100.00;99019.15;1940789;74;33128;-72
2021/10/20 22:54:50;;;;;;;39.60;36.80;;;;;;;11.78;100.00;99035.84;1940940;74;33577;-71
2021/10/20 23:00:17;;;;;;;39.90;37.13;;;;;;;11.85;100.00;99047.27;1940864;74;33050;-72
2021/10/20 23:05:43;;;;;;;40.40;37.50;;;;;;;11.85;100.00;99059.17;1940787;74;33158;-72
2021/10/20 23:11:10;;;;;;;41.37;38.63;;;;;;;11.90;100.00;99067.91;1940867;74;33062;-74
2021/10/20 23:16:35;;;;;;;42.90;40.17;;;;;;;11.99;100.00;99083.97;1941035;74;33561;-72
2021/10/20 23:22:01;;;;;;;40.67;37.90;;;;;;;11.94;100.00;99109.20;1940941;74;33514;-74
2021/10/20 23:27:25;;;;;;;41.73;38.83;;;;;;;11.88;100.00;99120.30;1940783;74;33021;-75
2021/10/20 23:33:10;;;;;;;42.60;39.70;;;;;;;11.73;100.00;99137.55;2009691;71;33545;-74
2021/10/20 23:38:35;;;;;;;41.70;38.80;;;;;;;11.71;100.00;99168.45;1940886;74;33631;-72
2021/10/20 23:44:00;;;;;;;41.73;39.13;;;;;;;11.81;100.00;99195.09;1940987;74;33073;-72
2021/10/20 23:49:26;;;;;;;41.23;38.20;;;;;;;11.78;100.00;99215.24;1940850;74;33187;-74
2021/10/20 23:54:50;;;;;;;43.10;40.30;;;;;;;11.68;100.00;99244.20;1940893;74;33570;-74
